< < Back
Terminal Aerodrome Forecast


Current Version              Previous Versions:   1  2  3  4  5  6  7  8  9  

Terminal Aerodrome Forecast

960
FTUS42 KGSP 261130
TAFHKY
TAF
KHKY 261130Z 2612/2712 19003KT P6SM SCT009 OVC012
      TEMPO 2612/2614 BKN009 OVC012
     FM261400 20004KT P6SM OVC028
     FM261600 20005KT P6SM OVC050
     FM270100 00000KT P6SM BKN060 PROB30 2701/2705 4SM TSRA BKN040CB
     FM270500 20004KT P6SM OVC017 PROB30 2705/2708 4SM TSRA OVC017CB
     FM270800 21004KT P6SM OVC008 PROB30 2708/2712 4SM TSRA
      OVC008CB=



Latest METAR

871
SAUS70 KWBC 261500 RRI
MTRHKY
METAR KHKY 261453Z AUTO 18006KT 10SM SCT027 24/17 A3029 RMK AO2 SLP236
T02440172 58005


USA.gov is the U.S. government's official web portal to all federal, state and local government web resources and services.